createdAt,value
2018-09-20T00:00:13.162Z,20.0
2018-09-20T00:01:13.840Z,19.9
2018-09-20T00:02:14.516Z,19.9
2018-09-20T00:03:15.190Z,19.9
2018-09-20T00:04:15.868Z,19.8
2018-09-20T00:05:16.543Z,19.9
2018-09-20T00:06:17.220Z,19.8
2018-09-20T00:07:17.895Z,19.8
2018-09-20T00:08:18.572Z,19.8
2018-09-20T00:09:19.249Z,19.8
2018-09-20T00:10:19.925Z,19.8
2018-09-20T00:11:20.601Z,19.8
2018-09-20T00:12:21.276Z,19.8
2018-09-20T00:13:21.954Z,19.8
2018-09-20T00:14:22.631Z,19.8
2018-09-20T00:15:23.308Z,19.8
2018-09-20T00:16:23.984Z,19.7
2018-09-20T00:17:24.662Z,19.8
2018-09-20T00:18:25.337Z,19.7
2018-09-20T00:19:26.015Z,19.7
2018-09-20T00:20:26.690Z,19.7
2018-09-20T00:21:27.367Z,19.8
2018-09-20T00:22:28.046Z,19.8
2018-09-20T00:23:28.771Z,19.7
2018-09-20T00:24:29.448Z,19.7
2018-09-20T00:25:30.129Z,19.7
2018-09-20T00:26:30.802Z,19.7
2018-09-20T00:27:31.477Z,19.7
2018-09-20T00:28:32.153Z,19.6
2018-09-20T00:29:32.832Z,19.6
2018-09-20T00:30:33.506Z,19.6
2018-09-20T00:31:34.181Z,19.6
2018-09-20T00:32:34.859Z,19.7
2018-09-20T00:33:35.534Z,19.7
2018-09-20T00:34:36.211Z,19.6
2018-09-20T00:35:36.887Z,19.6
2018-09-20T00:36:37.563Z,19.6
2018-09-20T00:37:38.238Z,19.6
2018-09-20T00:38:38.917Z,19.6
2018-09-20T00:39:39.608Z,19.6
2018-09-20T00:40:40.315Z,19.6
2018-09-20T00:41:40.992Z,19.6
2018-09-20T00:42:41.669Z,19.6
2018-09-20T00:43:42.345Z,19.5
2018-09-20T00:44:43.021Z,19.6
2018-09-20T00:45:43.701Z,19.5
2018-09-20T00:46:44.375Z,19.5
2018-09-20T00:47:45.096Z,19.5
2018-09-20T00:48:45.772Z,19.6
2018-09-20T00:49:46.448Z,19.6
2018-09-20T00:50:47.126Z,19.5
2018-09-20T00:51:47.802Z,19.5
2018-09-20T00:52:48.480Z,19.6
2018-09-20T00:53:49.154Z,19.7
2018-09-20T00:54:49.831Z,19.7
2018-09-20T00:55:50.507Z,19.7
2018-09-20T00:56:51.185Z,19.7
2018-09-20T00:57:51.905Z,19.7
2018-09-20T00:58:52.583Z,19.6
2018-09-20T00:59:53.261Z,19.7
2018-09-20T01:00:53.935Z,19.7
2018-09-20T01:01:54.610Z,19.7
2018-09-20T01:02:55.288Z,19.7
2018-09-20T01:03:55.963Z,19.6
2018-09-20T01:04:56.638Z,19.7
2018-09-20T01:05:57.315Z,19.6
2018-09-20T01:06:57.990Z,19.6
2018-09-20T01:07:58.669Z,19.7
2018-09-20T01:08:59.345Z,19.7
2018-09-20T01:10:00.020Z,19.7
2018-09-20T01:11:00.698Z,19.7
2018-09-20T01:12:01.372Z,19.6
2018-09-20T01:13:02.046Z,19.7
2018-09-20T01:14:02.725Z,19.7
2018-09-20T01:15:03.400Z,19.7
2018-09-20T01:16:04.078Z,19.7
2018-09-20T01:17:04.754Z,19.7
2018-09-20T01:18:05.431Z,19.7
2018-09-20T01:19:06.105Z,19.7
2018-09-20T01:20:06.781Z,19.7
2018-09-20T01:21:07.457Z,19.7
2018-09-20T01:22:08.132Z,19.6
2018-09-20T01:23:08.808Z,19.6
2018-09-20T01:24:09.484Z,19.7
2018-09-20T01:25:10.162Z,19.6
2018-09-20T01:26:10.837Z,19.7
2018-09-20T01:27:11.514Z,19.7
2018-09-20T01:28:12.188Z,19.6
2018-09-20T01:29:12.867Z,19.7
2018-09-20T01:30:13.542Z,19.7
2018-09-20T01:31:14.219Z,19.6
2018-09-20T01:32:14.895Z,19.7
2018-09-20T01:33:15.570Z,19.7
2018-09-20T01:34:16.247Z,19.6
2018-09-20T01:35:16.970Z,19.5
2018-09-20T01:36:17.602Z,19.6
2018-09-20T01:37:18.321Z,19.5
2018-09-20T01:38:18.998Z,19.6
2018-09-20T01:39:19.673Z,19.6
2018-09-20T01:40:20.351Z,19.6
2018-09-20T01:41:21.025Z,19.5
2018-09-20T01:42:21.703Z,19.5
2018-09-20T01:43:22.379Z,19.5
2018-09-20T01:44:23.055Z,19.5
2018-09-20T01:45:23.735Z,19.5
2018-09-20T01:46:24.452Z,19.4
2018-09-20T01:47:25.128Z,19.5
2018-09-20T01:48:25.804Z,19.5
2018-09-20T01:49:26.483Z,19.5
2018-09-20T01:50:27.154Z,19.5
2018-09-20T01:51:27.831Z,19.5
2018-09-20T01:52:28.506Z,19.5
2018-09-20T01:53:29.183Z,19.5
2018-09-20T01:54:29.859Z,19.5
2018-09-20T01:55:30.580Z,19.4
2018-09-20T01:56:31.255Z,19.4
2018-09-20T01:57:31.932Z,19.5
2018-09-20T01:58:32.607Z,19.4
2018-09-20T01:59:33.285Z,19.3
2018-09-20T02:00:33.962Z,19.3
2018-09-20T02:01:34.638Z,19.3
2018-09-20T02:02:35.314Z,19.3
2018-09-20T02:03:35.988Z,19.3
2018-09-20T02:04:36.665Z,19.3
2018-09-20T02:05:37.391Z,19.3
2018-09-20T02:06:38.068Z,19.4
2018-09-20T02:07:38.747Z,19.3
2018-09-20T02:08:39.420Z,19.3
2018-09-20T02:09:40.096Z,19.2
2018-09-20T02:10:40.771Z,19.2
2018-09-20T02:11:41.448Z,19.2
2018-09-20T02:12:42.124Z,19.2
2018-09-20T02:13:42.800Z,19.2
2018-09-20T02:14:43.476Z,19.2
2018-09-20T02:15:44.153Z,19.1
2018-09-20T02:16:44.830Z,19.2
2018-09-20T02:17:45.505Z,19.2
2018-09-20T02:18:46.181Z,19.1
2018-09-20T02:19:46.856Z,19.1
2018-09-20T02:20:47.533Z,19.1
2018-09-20T02:21:48.208Z,19.1
2018-09-20T02:22:48.884Z,19.1
2018-09-20T02:23:49.559Z,19.0
2018-09-20T02:24:50.236Z,19.0
2018-09-20T02:25:50.913Z,19.1
2018-09-20T02:26:51.633Z,19.0
2018-09-20T02:27:52.308Z,19.0
2018-09-20T02:28:52.984Z,19.0
2018-09-20T02:29:53.662Z,19.0
2018-09-20T02:30:54.338Z,18.9
2018-09-20T02:31:55.014Z,18.9
2018-09-20T02:32:55.688Z,18.8
2018-09-20T02:33:56.366Z,18.9
2018-09-20T02:34:57.045Z,18.9
2018-09-20T02:35:57.717Z,18.9
2018-09-20T02:36:58.393Z,18.8
2018-09-20T02:37:59.117Z,18.8
2018-09-20T02:38:59.793Z,18.8
2018-09-20T02:40:00.468Z,18.8
2018-09-20T02:41:01.143Z,18.8
2018-09-20T02:42:01.819Z,18.8
2018-09-20T02:43:02.495Z,18.7
2018-09-20T02:44:03.172Z,18.8
2018-09-20T02:45:03.849Z,18.7
2018-09-20T02:46:04.523Z,18.7
2018-09-20T02:47:05.198Z,18.6
2018-09-20T02:48:05.872Z,18.7
2018-09-20T02:49:06.549Z,18.7
2018-09-20T02:50:07.223Z,18.6
2018-09-20T02:51:07.905Z,18.6
2018-09-20T02:52:08.622Z,18.6
2018-09-20T02:53:09.299Z,18.7
2018-09-20T02:54:09.976Z,18.6
2018-09-20T02:55:10.650Z,18.6
2018-09-20T02:56:11.324Z,18.6
2018-09-20T02:57:12.001Z,18.5
2018-09-20T02:58:12.677Z,18.5
2018-09-20T02:59:13.356Z,18.5
2018-09-20T03:00:14.033Z,18.5
2018-09-20T03:01:14.752Z,18.4
2018-09-20T03:02:15.427Z,18.5
2018-09-20T03:03:16.103Z,18.4
2018-09-20T03:04:16.778Z,18.4
2018-09-20T03:05:17.454Z,18.3
2018-09-20T03:06:18.129Z,18.3
2018-09-20T03:07:18.806Z,18.3
2018-09-20T03:08:19.482Z,18.3
2018-09-20T03:09:20.202Z,18.3
2018-09-20T03:10:20.879Z,18.3
2018-09-20T03:11:21.553Z,18.3
2018-09-20T03:12:22.231Z,18.3
2018-09-20T03:13:22.903Z,18.2
2018-09-20T03:14:23.579Z,18.2
2018-09-20T03:15:24.256Z,18.2
2018-09-20T03:16:24.929Z,18.3
2018-09-20T03:17:25.605Z,18.3
2018-09-20T03:18:26.279Z,18.3
2018-09-20T03:19:26.960Z,18.3
2018-09-20T03:20:27.629Z,18.2
2018-09-20T03:21:28.308Z,18.2
2018-09-20T03:22:28.983Z,18.2
2018-09-20T03:23:29.702Z,18.2
2018-09-20T03:24:30.377Z,18.3
2018-09-20T03:25:31.054Z,18.3
2018-09-20T03:26:31.728Z,18.3
2018-09-20T03:27:32.450Z,18.4
2018-09-20T03:28:33.127Z,18.4
2018-09-20T03:29:33.805Z,18.4
2018-09-20T03:30:34.601Z,18.4
2018-09-20T03:31:35.200Z,18.4
2018-09-20T03:32:35.875Z,18.3
2018-09-20T03:33:36.600Z,18.3
2018-09-20T03:34:37.319Z,18.3
2018-09-20T03:35:37.994Z,18.3
2018-09-20T03:36:38.713Z,18.3
2018-09-20T03:37:39.389Z,18.2
2018-09-20T03:38:40.065Z,18.2
2018-09-20T03:39:40.741Z,18.2
2018-09-20T03:40:41.415Z,18.2
2018-09-20T03:41:42.092Z,18.2
2018-09-20T03:42:42.767Z,18.1
2018-09-20T03:43:43.445Z,18.1
2018-09-20T03:44:44.117Z,18.1
2018-09-20T03:45:44.794Z,18.0
2018-09-20T03:46:45.468Z,18.1
2018-09-20T03:47:46.145Z,18.1
2018-09-20T03:48:46.863Z,18.1
2018-09-20T03:49:47.540Z,18.1
2018-09-20T03:50:48.219Z,18.1
2018-09-20T03:51:48.890Z,18.0
2018-09-20T03:52:49.601Z,18.0
2018-09-20T03:53:50.242Z,18.0
2018-09-20T03:54:50.917Z,18.0
2018-09-20T03:55:51.595Z,17.9
2018-09-20T03:56:52.317Z,18.0
2018-09-20T03:57:53.036Z,17.9
2018-09-20T03:58:53.712Z,17.9
2018-09-20T03:59:54.387Z,17.9
2018-09-20T04:00:55.061Z,18.0
2018-09-20T04:01:55.738Z,17.9
2018-09-20T04:02:56.414Z,17.9
2018-09-20T04:03:57.087Z,17.9
2018-09-20T04:04:57.763Z,17.8
2018-09-20T04:05:58.439Z,17.8
2018-09-20T04:06:59.115Z,17.9
2018-09-20T04:07:59.789Z,17.8
2018-09-20T04:09:00.465Z,17.8
2018-09-20T04:10:01.138Z,17.8
2018-09-20T04:11:01.814Z,17.9
2018-09-20T04:12:02.489Z,17.9
2018-09-20T04:13:03.163Z,17.8
2018-09-20T04:14:03.884Z,17.9
2018-09-20T04:15:04.565Z,17.9
2018-09-20T04:16:05.235Z,17.9
2018-09-20T04:17:05.910Z,17.9
2018-09-20T04:18:06.591Z,17.8
2018-09-20T04:19:07.261Z,17.9
2018-09-20T04:20:07.937Z,17.9
2018-09-20T04:21:08.611Z,17.9
2018-09-20T04:22:09.287Z,17.8
2018-09-20T04:23:09.967Z,17.8
2018-09-20T04:24:10.641Z,17.8
2018-09-20T04:25:11.336Z,17.8
2018-09-20T04:26:12.035Z,17.8
2018-09-20T04:27:12.710Z,17.8
2018-09-20T04:28:13.384Z,17.8
2018-09-20T04:29:14.061Z,17.7
2018-09-20T04:30:14.736Z,17.7
2018-09-20T04:31:15.411Z,17.7
2018-09-20T04:32:16.084Z,17.6
2018-09-20T04:33:16.762Z,17.6
2018-09-20T04:34:17.437Z,17.6
2018-09-20T04:35:18.113Z,17.7
2018-09-20T04:36:18.787Z,17.6
2018-09-20T04:37:19.464Z,17.7
2018-09-20T04:38:20.147Z,17.6
2018-09-20T04:39:20.861Z,17.7
2018-09-20T04:40:21.577Z,17.6
2018-09-20T04:41:22.260Z,17.6
2018-09-20T04:42:22.938Z,17.7
2018-09-20T04:43:23.612Z,17.7
2018-09-20T04:44:24.289Z,17.7
2018-09-20T04:45:24.979Z,17.7
2018-09-20T04:46:25.689Z,17.7
2018-09-20T04:47:26.409Z,17.7
2018-09-20T04:48:27.079Z,17.8
2018-09-20T04:49:27.756Z,17.7
2018-09-20T04:50:28.483Z,17.7
2018-09-20T04:51:29.158Z,17.7
2018-09-20T04:52:29.836Z,17.6
2018-09-20T04:53:30.588Z,17.7
2018-09-20T04:54:31.190Z,17.7
2018-09-20T04:55:31.866Z,17.6
2018-09-20T04:56:32.544Z,17.7
2018-09-20T04:57:33.223Z,17.7
2018-09-20T04:58:33.901Z,17.6
2018-09-20T04:59:34.579Z,17.7
2018-09-20T05:00:35.257Z,17.7
2018-09-20T05:01:35.978Z,17.7
2018-09-20T05:02:36.657Z,17.6
2018-09-20T05:03:37.334Z,17.6
2018-09-20T05:04:38.011Z,17.6
2018-09-20T05:05:38.690Z,17.7
2018-09-20T05:06:39.369Z,17.6
2018-09-20T05:07:40.047Z,17.7
2018-09-20T05:08:40.725Z,17.7
2018-09-20T05:09:41.405Z,17.7
2018-09-20T05:10:42.088Z,17.7
2018-09-20T05:11:42.761Z,17.8
2018-09-20T05:12:43.441Z,17.7
2018-09-20T05:13:44.119Z,17.8
2018-09-20T05:14:44.796Z,17.8
2018-09-20T05:15:45.476Z,17.8
2018-09-20T05:16:46.153Z,17.9
2018-09-20T05:17:46.835Z,17.9
2018-09-20T05:18:47.509Z,17.9
2018-09-20T05:19:48.191Z,18.0
2018-09-20T05:20:48.875Z,18.0
2018-09-20T05:21:49.551Z,18.0
2018-09-20T05:22:50.231Z,18.1
2018-09-20T05:23:50.910Z,18.0
2018-09-20T05:24:51.592Z,18.1
2018-09-20T05:25:52.271Z,18.2
2018-09-20T05:26:52.954Z,18.2
2018-09-20T05:27:53.676Z,18.3
2018-09-20T05:28:54.425Z,18.3
2018-09-20T05:29:55.046Z,18.3
2018-09-20T05:30:55.726Z,18.4
2018-09-20T05:31:56.407Z,18.3
2018-09-20T05:32:57.085Z,18.4
2018-09-20T05:33:57.766Z,18.4
2018-09-20T05:34:58.446Z,18.5
2018-09-20T05:35:59.125Z,18.5
2018-09-20T05:36:59.806Z,18.5
2018-09-20T05:38:00.486Z,18.6
2018-09-20T05:39:01.165Z,18.6
2018-09-20T05:40:01.847Z,18.7
2018-09-20T05:41:02.529Z,18.7
2018-09-20T05:42:03.206Z,18.7
2018-09-20T05:43:03.937Z,18.8
2018-09-20T05:44:04.617Z,18.8
2018-09-20T05:45:05.298Z,18.8
2018-09-20T05:46:05.977Z,18.9
2018-09-20T05:47:06.660Z,18.9
2018-09-20T05:48:07.338Z,19.0
2018-09-20T05:49:08.059Z,19.0
2018-09-20T05:50:08.741Z,19.0
2018-09-20T05:51:09.424Z,19.0
2018-09-20T05:52:10.104Z,19.1
2018-09-20T05:53:10.783Z,19.2
2018-09-20T05:54:11.464Z,19.2
2018-09-20T05:55:12.146Z,19.3
2018-09-20T05:56:12.823Z,19.3
2018-09-20T05:57:13.506Z,19.3
2018-09-20T05:58:14.187Z,19.4
2018-09-20T05:59:14.917Z,19.5
2018-09-20T06:00:15.551Z,19.5
2018-09-20T06:01:16.274Z,19.5
2018-09-20T06:02:16.954Z,19.7
2018-09-20T06:03:17.680Z,19.6
2018-09-20T06:04:18.382Z,19.7
2018-09-20T06:05:19.088Z,19.7
2018-09-20T06:06:19.767Z,19.8
2018-09-20T06:07:20.447Z,19.9
2018-09-20T06:08:21.383Z,20.0
2018-09-20T06:09:22.062Z,20.0
2018-09-20T06:10:22.742Z,20.1
2018-09-20T06:11:23.422Z,20.0
2018-09-20T06:12:24.103Z,20.1
2018-09-20T06:13:24.785Z,20.2
2018-09-20T06:14:25.467Z,20.3
2018-09-20T06:15:26.146Z,20.3
2018-09-20T06:16:26.828Z,20.3
2018-09-20T06:17:27.509Z,20.4
2018-09-20T06:18:28.193Z,20.5
2018-09-20T06:19:28.918Z,20.5
2018-09-20T06:20:29.602Z,20.6
2018-09-20T06:21:30.283Z,20.7
2018-09-20T06:22:30.965Z,20.7
2018-09-20T06:23:31.657Z,20.6
2018-09-20T06:24:32.376Z,20.7
2018-09-20T06:25:33.069Z,20.7
2018-09-20T06:26:33.784Z,20.8
2018-09-20T06:27:34.489Z,20.9
2018-09-20T06:28:35.151Z,21.0
2018-09-20T06:29:35.831Z,21.0
2018-09-20T06:30:36.512Z,21.0
2018-09-20T06:31:37.197Z,21.1
2018-09-20T06:32:37.877Z,21.1
2018-09-20T06:33:38.559Z,21.1
2018-09-20T06:34:39.243Z,21.2
2018-09-20T06:35:39.926Z,21.1
2018-09-20T06:36:40.608Z,21.2
2018-09-20T06:37:41.289Z,21.2
2018-09-20T06:38:41.976Z,21.1
2018-09-20T06:39:42.705Z,21.1
2018-09-20T06:40:43.392Z,21.2
2018-09-20T06:41:44.070Z,21.2
2018-09-20T06:42:44.754Z,21.2
2018-09-20T06:43:45.436Z,21.3
2018-09-20T06:44:46.118Z,21.4
2018-09-20T06:45:46.801Z,21.4
2018-09-20T06:46:47.484Z,21.4
2018-09-20T06:47:48.167Z,21.4
2018-09-20T06:48:48.848Z,21.5
2018-09-20T06:49:49.531Z,21.5
2018-09-20T06:50:50.214Z,21.4
2018-09-20T06:51:50.938Z,21.4
2018-09-20T06:52:51.675Z,21.5
2018-09-20T06:53:52.355Z,21.6
2018-09-20T06:54:53.037Z,21.5
2018-09-20T06:55:53.722Z,21.6
2018-09-20T06:56:54.403Z,21.7
2018-09-20T06:57:55.091Z,21.8
2018-09-20T06:58:55.815Z,21.8
2018-09-20T06:59:56.499Z,21.9
2018-09-20T07:00:57.180Z,21.9
2018-09-20T07:01:57.864Z,22.0
2018-09-20T07:02:58.558Z,22.1
2018-09-20T07:03:59.228Z,22.0
2018-09-20T07:04:59.913Z,22.2
2018-09-20T07:06:00.640Z,22.2
2018-09-20T07:07:01.325Z,22.2
2018-09-20T07:08:02.007Z,22.2
2018-09-20T07:09:02.690Z,22.1
2018-09-20T07:10:03.375Z,22.2
2018-09-20T07:11:04.057Z,22.3
2018-09-20T07:12:04.739Z,22.2
2018-09-20T07:13:05.422Z,22.3
2018-09-20T07:14:06.110Z,22.3
2018-09-20T07:15:06.789Z,22.3
2018-09-20T07:16:07.471Z,22.3
2018-09-20T07:17:08.156Z,22.3
2018-09-20T07:18:08.837Z,22.4
2018-09-20T07:19:09.543Z,22.4
2018-09-20T07:20:10.202Z,22.4
2018-09-20T07:21:10.887Z,22.4
2018-09-20T07:22:11.569Z,22.5
2018-09-20T07:23:12.251Z,22.5
2018-09-20T07:24:12.940Z,22.6
2018-09-20T07:25:13.656Z,22.7
2018-09-20T07:26:14.301Z,22.7
2018-09-20T07:27:14.986Z,22.9
2018-09-20T07:28:15.669Z,22.9
2018-09-20T07:29:16.355Z,23.0
2018-09-20T07:30:17.035Z,23.2
2018-09-20T07:31:17.720Z,23.3
2018-09-20T07:32:18.404Z,23.4
2018-09-20T07:33:19.089Z,23.7
2018-09-20T07:34:19.816Z,23.9
2018-09-20T07:35:20.503Z,24.3
2018-09-20T07:36:21.185Z,24.8
2018-09-20T07:37:21.867Z,25.2
2018-09-20T07:38:22.553Z,25.7
2018-09-20T07:39:23.239Z,26.3
2018-09-20T07:40:23.923Z,26.7
2018-09-20T07:41:24.607Z,27.2
2018-09-20T07:42:25.338Z,27.5
2018-09-20T07:43:26.047Z,28.0
2018-09-20T07:44:26.745Z,28.4
2018-09-20T07:45:27.430Z,28.8
2018-09-20T07:46:28.114Z,29.1
2018-09-20T07:47:28.799Z,29.3
2018-09-20T07:48:29.484Z,29.4
2018-09-20T07:49:30.171Z,29.4
2018-09-20T07:50:30.856Z,29.6
2018-09-20T07:51:31.540Z,29.7
2018-09-20T07:52:32.225Z,29.7
2018-09-20T07:53:32.971Z,29.8
2018-09-20T07:54:33.597Z,30.0
2018-09-20T07:55:34.283Z,30.2
2018-09-20T07:56:35.041Z,30.2
2018-09-20T07:57:35.656Z,30.3
2018-09-20T07:58:36.346Z,30.3
2018-09-20T07:59:37.028Z,30.2
2018-09-20T08:00:37.718Z,30.1
2018-09-20T08:01:38.484Z,30.0
2018-09-20T08:02:39.135Z,30.1
2018-09-20T08:03:39.821Z,30.1
2018-09-20T08:04:40.508Z,30.2
2018-09-20T08:05:41.194Z,30.2
2018-09-20T08:06:41.881Z,30.3
2018-09-20T08:07:42.568Z,30.3
2018-09-20T08:08:43.256Z,30.5
2018-09-20T08:09:43.943Z,30.5
2018-09-20T08:10:44.628Z,30.4
2018-09-20T08:11:45.316Z,30.4
2018-09-20T08:12:46.016Z,30.4
2018-09-20T08:13:46.735Z,30.3
2018-09-20T08:14:47.472Z,30.2
2018-09-20T08:15:48.202Z,30.1
2018-09-20T08:16:48.937Z,30.2
2018-09-20T08:17:49.625Z,30.1
2018-09-20T08:18:50.312Z,30.0
2018-09-20T08:19:50.999Z,30.1
2018-09-20T08:20:51.721Z,30.3
2018-09-20T08:21:52.420Z,30.3
2018-09-20T08:22:53.110Z,30.3
2018-09-20T08:23:53.794Z,30.5
2018-09-20T08:24:54.484Z,30.5
2018-09-20T08:25:55.170Z,30.5
2018-09-20T08:26:55.858Z,30.7
2018-09-20T08:27:56.610Z,30.9
2018-09-20T08:28:57.278Z,31.1
2018-09-20T08:29:57.966Z,31.3
2018-09-20T08:30:58.658Z,31.5
2018-09-20T08:31:59.343Z,31.6
2018-09-20T08:33:00.032Z,31.7
2018-09-20T08:34:00.719Z,31.9
2018-09-20T08:35:01.409Z,32.1
2018-09-20T08:36:02.101Z,32.2
2018-09-20T08:37:02.856Z,32.1
2018-09-20T08:38:03.518Z,32.2
2018-09-20T08:39:04.207Z,32.3
2018-09-20T08:40:04.895Z,32.3
2018-09-20T08:41:05.584Z,32.1
2018-09-20T08:42:06.304Z,32.1
2018-09-20T08:43:06.960Z,32.1
2018-09-20T08:44:07.649Z,32.1
2018-09-20T08:45:08.336Z,31.9
2018-09-20T08:46:09.024Z,31.9
2018-09-20T08:47:09.716Z,31.8
2018-09-20T08:48:10.446Z,31.6
2018-09-20T08:49:11.136Z,31.5
2018-09-20T08:50:11.823Z,31.3
2018-09-20T08:51:12.511Z,31.2
2018-09-20T08:52:13.197Z,31.0
2018-09-20T08:53:13.885Z,31.0
2018-09-20T08:54:14.574Z,30.9
2018-09-20T08:55:15.263Z,30.8
2018-09-20T08:56:15.951Z,30.7
2018-09-20T08:57:16.662Z,30.5
2018-09-20T08:58:17.327Z,30.4
2018-09-20T08:59:18.016Z,30.3
2018-09-20T09:00:18.707Z,30.2
2018-09-20T09:01:19.391Z,30.1
2018-09-20T09:02:20.080Z,29.9
2018-09-20T09:03:20.767Z,29.9
2018-09-20T09:04:21.462Z,30.0
2018-09-20T09:05:22.145Z,30.1
2018-09-20T09:06:22.831Z,30.1
2018-09-20T09:07:23.520Z,30.1
2018-09-20T09:08:24.207Z,30.1
2018-09-20T09:09:24.895Z,30.3
2018-09-20T09:10:25.583Z,30.3
2018-09-20T09:11:26.315Z,30.5
2018-09-20T09:12:27.004Z,30.4
2018-09-20T09:13:27.696Z,30.1
2018-09-20T09:14:28.427Z,30.1
2018-09-20T09:15:29.158Z,30.1
2018-09-20T09:16:29.846Z,30.0
2018-09-20T09:17:30.535Z,30.0
2018-09-20T09:18:31.222Z,30.1
2018-09-20T09:19:31.947Z,30.3
2018-09-20T09:20:32.598Z,30.4
2018-09-20T09:21:33.286Z,30.5
2018-09-20T09:22:33.973Z,30.5
2018-09-20T09:23:34.663Z,30.6
2018-09-20T09:24:35.427Z,30.6
2018-09-20T09:25:36.209Z,30.7
2018-09-20T09:26:37.168Z,30.8
2018-09-20T09:27:37.897Z,30.8
2018-09-20T09:28:38.595Z,30.7
2018-09-20T09:29:39.273Z,30.8
2018-09-20T09:30:39.963Z,30.7
2018-09-20T09:31:40.653Z,30.7
2018-09-20T09:32:41.338Z,30.7
2018-09-20T09:33:42.027Z,30.7
2018-09-20T09:34:42.761Z,30.7
2018-09-20T09:35:43.450Z,30.8
2018-09-20T09:36:44.137Z,30.9
2018-09-20T09:37:44.829Z,30.9
2018-09-20T09:38:45.512Z,31.0
2018-09-20T09:39:46.200Z,31.1
2018-09-20T09:40:46.897Z,31.1
2018-09-20T09:41:47.624Z,31.0
2018-09-20T09:42:48.313Z,31.1
2018-09-20T09:43:49.000Z,31.0
2018-09-20T09:44:49.691Z,31.0
2018-09-20T09:45:50.378Z,30.9
2018-09-20T09:46:51.069Z,31.0
2018-09-20T09:47:51.755Z,31.0
2018-09-20T09:48:52.445Z,31.0
2018-09-20T09:49:53.132Z,31.0
2018-09-20T09:50:53.866Z,31.0
2018-09-20T09:51:54.557Z,30.9
2018-09-20T09:52:55.243Z,30.9
2018-09-20T09:53:55.993Z,31.0
2018-09-20T09:54:56.721Z,31.1
2018-09-20T09:55:57.362Z,31.1
2018-09-20T09:56:58.043Z,31.0
2018-09-20T09:57:58.732Z,30.9
2018-09-20T09:58:59.505Z,31.0
2018-09-20T10:00:00.200Z,31.1
2018-09-20T10:01:00.956Z,31.1
2018-09-20T10:02:01.670Z,31.1
2018-09-20T10:03:02.408Z,30.9
2018-09-20T10:04:03.094Z,30.9
2018-09-20T10:05:03.780Z,30.8
2018-09-20T10:06:04.470Z,30.8
2018-09-20T10:07:05.286Z,30.7
2018-09-20T10:08:05.887Z,30.7
2018-09-20T10:09:06.585Z,30.8
2018-09-20T10:10:07.309Z,30.8
2018-09-20T10:11:07.998Z,30.8
2018-09-20T10:12:08.685Z,30.7
2018-09-20T10:13:09.425Z,30.8
2018-09-20T10:14:10.154Z,30.8
2018-09-20T10:15:10.841Z,30.7
2018-09-20T10:16:11.528Z,30.8
2018-09-20T10:17:12.218Z,30.8
2018-09-20T10:18:12.908Z,30.8
2018-09-20T10:19:13.644Z,30.8
2018-09-20T10:20:14.332Z,30.7
2018-09-20T10:21:15.020Z,30.6
2018-09-20T10:22:15.732Z,30.5
2018-09-20T10:23:16.444Z,30.4
2018-09-20T10:24:17.133Z,30.2
2018-09-20T10:25:17.820Z,30.3
2018-09-20T10:26:18.511Z,30.2
2018-09-20T10:27:19.195Z,30.3
2018-09-20T10:28:19.884Z,30.2
2018-09-20T10:29:20.572Z,30.3
2018-09-20T10:30:21.265Z,30.3
2018-09-20T10:31:22.034Z,30.3
2018-09-20T10:32:22.688Z,30.3
2018-09-20T10:33:23.373Z,30.2
2018-09-20T10:34:24.062Z,30.2
2018-09-20T10:35:24.749Z,30.3
2018-09-20T10:36:25.438Z,30.2
2018-09-20T10:37:26.165Z,30.2
2018-09-20T10:38:26.851Z,30.1
2018-09-20T10:39:27.539Z,30.1
2018-09-20T10:40:28.228Z,30.0
2018-09-20T10:41:28.916Z,30.1
2018-09-20T10:42:29.605Z,30.1
2018-09-20T10:43:30.348Z,30.2
2018-09-20T10:44:31.035Z,30.1
2018-09-20T10:45:31.725Z,30.1
2018-09-20T10:46:32.452Z,30.1
2018-09-20T10:47:33.144Z,30.1
2018-09-20T10:48:33.828Z,30.0
2018-09-20T10:49:34.516Z,30.0
2018-09-20T10:50:35.205Z,30.0
2018-09-20T10:51:35.893Z,29.9
2018-09-20T10:52:36.580Z,29.8
2018-09-20T10:53:37.267Z,29.7
2018-09-20T10:54:38.019Z,29.6
2018-09-20T10:55:38.644Z,29.6
2018-09-20T10:56:39.332Z,29.5
2018-09-20T10:57:40.020Z,29.5
2018-09-20T10:58:40.710Z,29.4
2018-09-20T10:59:41.444Z,29.3
2018-09-20T11:00:42.135Z,29.2
2018-09-20T11:01:42.823Z,29.2
2018-09-20T11:02:43.508Z,29.1
2018-09-20T11:03:44.231Z,29.1
2018-09-20T11:04:44.929Z,29.0
2018-09-20T11:05:45.616Z,29.0
2018-09-20T11:06:46.303Z,29.0
2018-09-20T11:07:46.992Z,29.1
2018-09-20T11:08:47.679Z,29.0
2018-09-20T11:09:48.366Z,29.0
2018-09-20T11:10:49.107Z,29.0
2018-09-20T11:11:49.788Z,29.0
2018-09-20T11:12:50.478Z,29.0
2018-09-20T11:13:51.208Z,29.0
2018-09-20T11:14:51.896Z,29.0
2018-09-20T11:15:52.584Z,29.2
2018-09-20T11:16:53.301Z,29.3
2018-09-20T11:17:54.006Z,29.3
2018-09-20T11:18:54.692Z,29.3
2018-09-20T11:19:55.381Z,29.3
2018-09-20T11:20:56.068Z,29.3
2018-09-20T11:21:56.754Z,29.3
2018-09-20T11:22:57.441Z,29.3
2018-09-20T11:23:58.130Z,29.3
2018-09-20T11:24:58.817Z,29.3
2018-09-20T11:25:59.511Z,29.4
2018-09-20T11:27:00.286Z,29.3
2018-09-20T11:28:00.967Z,29.3
2018-09-20T11:29:01.657Z,29.2
2018-09-20T11:30:02.342Z,29.3
2018-09-20T11:31:03.032Z,29.3
2018-09-20T11:32:03.718Z,29.2
2018-09-20T11:33:04.406Z,29.2
2018-09-20T11:34:05.093Z,29.1
2018-09-20T11:35:05.779Z,29.2
2018-09-20T11:36:06.470Z,29.1
2018-09-20T11:37:07.151Z,29.0
2018-09-20T11:38:07.839Z,29.0
2018-09-20T11:39:08.525Z,29.0
2018-09-20T11:40:09.213Z,29.0
2018-09-20T11:41:09.898Z,28.9
2018-09-20T11:42:10.589Z,28.9
2018-09-20T11:43:11.273Z,28.8
2018-09-20T11:44:11.963Z,28.8
2018-09-20T11:45:12.651Z,28.9
2018-09-20T11:46:13.337Z,28.8
2018-09-20T11:47:14.061Z,28.8
2018-09-20T11:48:14.754Z,28.8
2018-09-20T11:49:15.441Z,28.8
2018-09-20T11:50:16.129Z,28.7
2018-09-20T11:51:16.816Z,28.7
2018-09-20T11:52:17.503Z,28.7
2018-09-20T11:53:18.190Z,28.7
2018-09-20T11:54:18.877Z,28.7
2018-09-20T11:55:19.561Z,28.7
2018-09-20T11:56:20.250Z,28.7
2018-09-20T11:57:20.936Z,28.7
2018-09-20T11:58:21.623Z,28.8
2018-09-20T11:59:22.312Z,28.6
2018-09-20T12:00:22.999Z,28.7
2018-09-20T12:01:23.737Z,28.7
2018-09-20T12:02:24.371Z,28.7
2018-09-20T12:03:25.057Z,28.8
2018-09-20T12:04:25.745Z,28.8
2018-09-20T12:05:26.432Z,28.8
2018-09-20T12:06:27.115Z,28.8
2018-09-20T12:07:27.804Z,28.7
2018-09-20T12:08:28.509Z,28.8
2018-09-20T12:09:29.221Z,28.8
2018-09-20T12:10:29.908Z,28.8
2018-09-20T12:11:30.595Z,28.8
2018-09-20T12:12:31.282Z,28.8
2018-09-20T12:13:31.969Z,28.8
2018-09-20T12:14:32.671Z,28.8
2018-09-20T12:15:33.394Z,28.8
2018-09-20T12:16:34.128Z,28.8
2018-09-20T12:17:34.849Z,28.9
2018-09-20T12:18:35.537Z,28.8
2018-09-20T12:19:36.223Z,28.9
2018-09-20T12:20:36.952Z,28.8
2018-09-20T12:21:37.641Z,28.9
2018-09-20T12:22:38.328Z,28.9
2018-09-20T12:23:39.015Z,28.9
2018-09-20T12:24:39.700Z,28.9
2018-09-20T12:25:40.387Z,28.9
2018-09-20T12:26:41.076Z,29.0
2018-09-20T12:27:41.761Z,29.0
2018-09-20T12:28:42.450Z,29.0
2018-09-20T12:29:43.135Z,29.0
2018-09-20T12:30:43.822Z,29.0
2018-09-20T12:31:44.591Z,29.0
2018-09-20T12:32:45.247Z,29.0
2018-09-20T12:33:45.926Z,28.9
2018-09-20T12:34:46.613Z,29.1
2018-09-20T12:35:47.475Z,29.1
2018-09-20T12:36:48.081Z,29.2
2018-09-20T12:37:48.767Z,29.1
2018-09-20T12:38:49.505Z,29.1
2018-09-20T12:39:50.141Z,29.1
2018-09-20T12:40:50.849Z,29.1
2018-09-20T12:41:51.560Z,29.2
2018-09-20T12:42:52.296Z,29.2
2018-09-20T12:43:52.938Z,29.2
2018-09-20T12:44:53.637Z,29.2
2018-09-20T12:45:54.355Z,29.3
2018-09-20T12:46:55.043Z,29.3
2018-09-20T12:47:55.728Z,29.3
2018-09-20T12:48:56.420Z,29.2
2018-09-20T12:49:57.147Z,29.3
2018-09-20T12:50:57.834Z,29.2
2018-09-20T12:51:58.521Z,29.3
2018-09-20T12:52:59.211Z,29.3
2018-09-20T12:53:59.897Z,29.3
2018-09-20T12:55:00.582Z,29.3
2018-09-20T12:56:01.304Z,29.3
2018-09-20T12:57:02.003Z,29.3
2018-09-20T12:58:02.726Z,29.3
2018-09-20T12:59:03.376Z,29.3
2018-09-20T13:00:04.095Z,29.2
2018-09-20T13:01:04.794Z,29.3
2018-09-20T13:02:05.527Z,29.4
2018-09-20T13:03:06.168Z,29.4
2018-09-20T13:04:06.855Z,29.4
2018-09-20T13:05:07.546Z,29.4
2018-09-20T13:06:08.295Z,29.4
2018-09-20T13:07:09.009Z,29.3
2018-09-20T13:08:09.700Z,29.4
2018-09-20T13:09:10.383Z,29.3
2018-09-20T13:10:11.071Z,29.4
2018-09-20T13:11:11.782Z,29.4
2018-09-20T13:12:12.493Z,29.4
2018-09-20T13:13:13.215Z,29.4
2018-09-20T13:14:13.909Z,29.3
2018-09-20T13:15:14.597Z,29.3
2018-09-20T13:16:15.283Z,29.3
2018-09-20T13:17:15.970Z,29.3
2018-09-20T13:18:16.706Z,29.4
2018-09-20T13:19:17.437Z,29.3
2018-09-20T13:20:18.153Z,29.3
2018-09-20T13:21:18.850Z,29.3
2018-09-20T13:22:19.583Z,29.3
2018-09-20T13:23:20.271Z,29.4
2018-09-20T13:24:20.958Z,29.3
2018-09-20T13:25:21.674Z,29.4
2018-09-20T13:26:22.422Z,29.4
2018-09-20T13:27:23.114Z,29.3